Time;durP1;ratioP1;P1;durP2;ratioP2;P2;SDS_P1;SDS_P2;PMS_P1;PMS_P2;Temp;Humidity;BMP_temperature;BMP_pressure;BME280_temperature;BME280_humidity;BME280_pressure;Samples;Min_cycle;Max_cycle;Signal;HPM_P1;HPM_P2
2024/01/17 00:02:31;;;;;;;;;21.00;16.50;;;;;-5.81;85.07;99795.01;113117;237;40184;-49
2024/01/17 00:05:10;;;;;;;;;25.00;19.00;;;;;-5.77;85.08;99792.21;113105;237;39744;-49
2024/01/17 00:07:45;;;;;;;;;26.00;19.00;;;;;-5.78;85.25;99784.05;113180;237;40325;-56
2024/01/17 00:10:20;;;;;;;;;24.50;17.50;;;;;-5.71;85.28;99779.23;113080;237;40889;-55
2024/01/17 00:12:56;;;;;;;;;28.75;19.25;;;;;-5.67;85.40;99776.81;113150;237;40745;-53
2024/01/17 00:15:36;;;;;;;;;20.00;14.00;;;;;-5.64;85.39;99779.48;113175;237;41398;-54
2024/01/17 00:18:13;;;;;;;;;24.00;17.00;;;;;-5.60;85.74;99789.85;113125;237;40490;-55
2024/01/17 00:20:50;;;;;;;;;19.75;16.50;;;;;-5.57;85.75;99794.59;113179;237;39296;-51
2024/01/17 00:23:25;;;;;;;;;22.75;16.50;;;;;-5.61;86.00;99790.66;113198;237;40741;-51
2024/01/17 00:26:00;;;;;;;;;21.67;16.00;;;;;-5.57;86.19;99787.40;113161;237;39502;-54
2024/01/17 00:28:35;;;;;;;;;26.50;16.00;;;;;-5.57;86.23;99784.93;113122;237;40185;-55
2024/01/17 00:31:17;;;;;;;;;22.25;15.00;;;;;-5.57;86.34;99781.38;113172;237;41037;-55
2024/01/17 00:33:57;;;;;;;;;19.75;15.00;;;;;-5.48;86.47;99778.70;113175;237;39926;-55
2024/01/17 00:36:32;;;;;;;;;17.00;13.75;;;;;-5.42;86.81;99783.35;113168;237;40365;-54
2024/01/17 00:39:10;;;;;;;;;19.00;15.00;;;;;-5.41;86.82;99774.84;113152;237;40036;-54
2024/01/17 00:41:46;;;;;;;;;16.00;13.00;;;;;-5.33;86.72;99771.92;113173;237;40933;-51
2024/01/17 00:44:27;;;;;;;;;22.00;15.75;;;;;-5.28;86.89;99775.23;113184;237;39058;-51
2024/01/17 00:47:05;;;;;;;;;21.00;15.00;;;;;-5.23;86.98;99776.96;113139;237;40090;-55
2024/01/17 00:49:47;;;;;;;;;21.00;15.50;;;;;-5.16;87.02;99778.91;113132;237;40532;-51
2024/01/17 00:52:32;;;;;;;;;25.75;17.00;;;;;-5.09;87.10;99778.84;113086;237;39087;-55
2024/01/17 00:55:12;;;;;;;;;23.50;17.00;;;;;-5.07;87.03;99773.24;113113;237;42243;-56
2024/01/17 00:57:49;;;;;;;;;21.50;15.00;;;;;-5.05;87.38;99770.98;113157;237;39701;-51
2024/01/17 01:00:28;;;;;;;;;25.25;18.00;;;;;-5.03;87.36;99774.91;113144;237;40667;-54
2024/01/17 01:03:05;;;;;;;;;13.50;12.00;;;;;-5.03;87.58;99772.92;113121;237;39738;-55
2024/01/17 01:05:39;;;;;;;;;17.00;13.50;;;;;-5.02;87.65;99771.45;113160;237;39086;-51
2024/01/17 01:08:15;;;;;;;;;17.50;12.00;;;;;-4.95;87.89;99775.52;113148;238;40109;-51
2024/01/17 01:10:52;;;;;;;;;20.00;15.00;;;;;-4.96;87.97;99765.09;113193;237;38972;-53
2024/01/17 01:13:31;;;;;;;;;23.00;16.00;;;;;-4.92;88.03;99764.98;113124;237;40032;-53
2024/01/17 01:16:10;;;;;;;;;18.75;14.50;;;;;-4.86;88.21;99757.17;113195;237;39622;-50
2024/01/17 01:18:48;;;;;;;;;26.00;18.00;;;;;-4.86;88.31;99756.31;113145;238;39975;-51
2024/01/17 01:21:28;;;;;;;;;26.00;17.00;;;;;-4.78;88.47;99750.91;113199;237;39734;-55
2024/01/17 01:24:02;;;;;;;;;24.25;19.00;;;;;-4.72;88.51;99753.02;113166;237;39467;-55
2024/01/17 01:26:39;;;;;;;;;29.25;19.25;;;;;-4.68;88.65;99749.59;113147;237;38995;-54
2024/01/17 01:29:15;;;;;;;;;27.25;18.50;;;;;-4.67;88.69;99747.23;113145;237;39263;-55
2024/01/17 01:31:57;;;;;;;;;14.50;12.00;;;;;-4.68;88.82;99746.77;113180;237;39185;-51
2024/01/17 01:34:40;;;;;;;;;32.33;22.00;;;;;-4.66;88.75;99747.64;113134;237;40457;-51
2024/01/17 01:37:15;;;;;;;;;27.00;20.00;;;;;-4.61;88.62;99744.50;113132;237;39448;-50
2024/01/17 01:39:50;;;;;;;;;21.25;14.75;;;;;-4.60;88.58;99744.41;113123;237;39844;-50
2024/01/17 01:42:32;;;;;;;;;35.75;25.50;;;;;-4.62;88.52;99743.85;113158;237;39087;-49
2024/01/17 01:45:09;;;;;;;;;30.25;23.00;;;;;-4.61;88.74;99742.54;113091;237;39440;-50
2024/01/17 01:47:44;;;;;;;;;40.00;28.50;;;;;-4.66;88.93;99740.64;113158;237;39491;-51
2024/01/17 01:50:22;;;;;;;;;30.25;24.00;;;;;-4.69;88.67;99742.40;113115;237;40919;-51
2024/01/17 01:52:56;;;;;;;;;30.50;23.25;;;;;-4.68;88.76;99742.01;113143;237;39160;-55
2024/01/17 01:55:32;;;;;;;;;33.25;24.25;;;;;-4.73;88.81;99736.93;113171;237;39698;-54
2024/01/17 01:58:09;;;;;;;;;36.00;28.00;;;;;-4.71;88.76;99731.17;113135;238;40862;-54
2024/01/17 02:00:47;;;;;;;;;27.00;23.00;;;;;-4.67;88.72;99729.80;113156;238;39676;-52
2024/01/17 02:03:22;;;;;;;;;22.00;16.50;;;;;-4.67;88.84;99728.92;113179;237;39253;-51
2024/01/17 02:05:59;;;;;;;;;32.00;22.00;;;;;-4.64;88.89;99733.33;113220;237;39790;-54
2024/01/17 02:08:36;;;;;;;;;23.00;17.67;;;;;-4.62;88.83;99727.16;113135;238;39726;-54
2024/01/17 02:11:13;;;;;;;;;33.00;23.33;;;;;-4.62;88.96;99729.27;113145;237;40069;-50
2024/01/17 02:13:50;;;;;;;;;27.67;19.00;;;;;-4.59;88.83;99726.95;113153;237;40235;-50
2024/01/17 02:16:27;;;;;;;;;35.33;23.67;;;;;-4.55;88.85;99722.94;113172;237;40168;-53
2024/01/17 02:19:05;;;;;;;;;31.33;21.33;;;;;-4.58;88.87;99724.58;113111;237;40051;-53
2024/01/17 02:21:42;;;;;;;;;33.00;25.00;;;;;-4.55;88.92;99727.20;113120;237;39257;-51
2024/01/17 02:24:23;;;;;;;;;32.00;22.50;;;;;-4.53;88.90;99721.75;113131;237;40847;-50
2024/01/17 02:27:01;;;;;;;;;20.67;15.00;;;;;-4.53;89.02;99723.14;113120;237;41633;-53
2024/01/17 02:29:40;;;;;;;;;38.00;25.00;;;;;-4.53;89.02;99724.58;113137;237;39585;-53
2024/01/17 02:32:16;;;;;;;;;27.67;20.00;;;;;-4.51;88.98;99720.06;113137;237;40689;-50
2024/01/17 02:34:55;;;;;;;;;21.00;16.67;;;;;-4.53;89.02;99718.41;113148;237;41439;-51
2024/01/17 02:37:32;;;;;;;;;25.75;20.00;;;;;-4.54;89.08;99717.08;113153;237;40868;-52
2024/01/17 02:40:06;;;;;;;;;28.25;21.75;;;;;-4.51;89.02;99720.59;113192;237;40450;-52
2024/01/17 02:42:42;;;;;;;;;31.75;23.50;;;;;-4.49;89.06;99715.31;113201;237;39700;-51
2024/01/17 02:45:17;;;;;;;;;33.00;23.00;;;;;-4.53;89.13;99714.19;113203;237;40834;-51
2024/01/17 02:47:54;;;;;;;;;30.25;22.25;;;;;-4.52;89.05;99713.08;113166;238;39771;-53
2024/01/17 02:50:36;;;;;;;;;29.50;21.75;;;;;-4.52;88.97;99716.08;113142;237;39149;-53
2024/01/17 02:53:16;;;;;;;;;37.75;26.00;;;;;-4.55;89.09;99715.23;113112;237;39237;-54
2024/01/17 02:55:52;;;;;;;;;38.25;26.75;;;;;-4.52;89.00;99716.73;113163;238;39554;-53
2024/01/17 02:58:26;;;;;;;;;31.00;24.00;;;;;-4.49;88.91;99718.82;113155;237;41196;-54
2024/01/17 03:01:01;;;;;;;;;29.00;20.00;;;;;-4.53;89.08;99714.40;113249;237;39371;-51
2024/01/17 03:03:35;;;;;;;;;41.50;28.00;;;;;-4.53;89.28;99710.14;113143;237;39191;-51
2024/01/17 03:06:10;;;;;;;;;34.33;25.00;;;;;-4.51;89.29;99706.50;113076;238;39861;-48
2024/01/17 03:08:50;;;;;;;;;30.00;22.33;;;;;-4.47;89.22;99706.58;113117;237;40719;-48
2024/01/17 03:11:27;;;;;;;;;25.00;19.33;;;;;-4.42;89.11;99698.65;113154;237;40323;-51
2024/01/17 03:14:04;;;;;;;;;30.33;23.00;;;;;-4.40;89.23;99695.52;113169;237;39604;-51
2024/01/17 03:16:40;;;;;;;;;30.75;22.50;;;;;-4.42;89.11;99692.97;113088;238;39412;-53
2024/01/17 03:19:16;;;;;;;;;32.75;23.00;;;;;-4.42;89.07;99690.52;113145;237;40086;-53
2024/01/17 03:21:50;;;;;;;;;27.00;20.50;;;;;-4.45;89.24;99694.13;113176;237;40967;-55
2024/01/17 03:24:26;;;;;;;;;31.50;23.00;;;;;-4.40;89.25;99692.16;113157;237;40005;-55
2024/01/17 03:27:03;;;;;;;;;29.50;23.00;;;;;-4.40;89.26;99691.83;113196;237;39617;-55
2024/01/17 03:29:42;;;;;;;;;21.67;16.67;;;;;-4.41;89.30;99692.92;113191;238;41105;-55
2024/01/17 03:32:18;;;;;;;;;30.50;23.00;;;;;-4.45;89.24;99694.80;113214;237;39885;-50
2024/01/17 03:34:55;;;;;;;;;39.50;26.00;;;;;-4.48;89.30;99695.23;113183;237;39282;-50
2024/01/17 03:37:34;;;;;;;;;28.00;21.00;;;;;-4.48;89.15;99694.48;113178;238;40219;-55
2024/01/17 03:40:13;;;;;;;;;33.00;25.00;;;;;-4.49;89.22;99693.34;113115;238;39716;-55
2024/01/17 03:42:49;;;;;;;;;33.00;23.00;;;;;-4.52;89.25;99693.38;113198;237;39098;-51
2024/01/17 03:45:27;;;;;;;;;28.50;20.25;;;;;-4.56;89.16;99694.73;113209;237;39843;-54
2024/01/17 03:48:02;;;;;;;;;31.00;20.00;;;;;-4.62;89.34;99698.85;113076;237;40806;-55
2024/01/17 03:50:41;;;;;;;;;31.67;22.00;;;;;-4.61;89.29;99696.31;113171;237;39346;-50
2024/01/17 03:53:19;;;;;;;;;31.25;22.50;;;;;-4.60;89.47;99697.11;113104;237;41045;-51
2024/01/17 03:55:56;;;;;;;;;32.00;21.00;;;;;-4.62;89.46;99693.23;113108;237;39849;-50
2024/01/17 03:58:32;;;;;;;;;29.50;21.00;;;;;-4.65;89.41;99691.94;113114;237;39121;-50
2024/01/17 04:01:09;;;;;;;;;34.25;23.00;;;;;-4.71;89.36;99694.08;113178;237;39595;-51
2024/01/17 04:03:46;;;;;;;;;33.00;24.00;;;;;-4.74;89.49;99692.23;113153;237;39593;-51
2024/01/17 04:06:22;;;;;;;;;37.50;23.00;;;;;-4.68;89.47;99695.97;113187;237;40889;-50
2024/01/17 04:08:59;;;;;;;;;28.00;21.00;;;;;-4.62;89.71;99695.71;113116;237;40130;-50
2024/01/17 04:11:34;;;;;;;;;30.67;21.00;;;;;-4.56;89.57;99695.77;113175;237;40504;-52
2024/01/17 04:14:13;;;;;;;;;25.00;19.00;;;;;-4.57;89.69;99695.17;113127;238;39715;-52
2024/01/17 04:16:50;;;;;;;;;25.67;19.00;;;;;-4.59;89.70;99694.95;113165;237;40010;-54
2024/01/17 04:19:33;;;;;;;;;33.00;20.33;;;;;-4.61;89.70;99694.25;113120;238;39769;-54
2024/01/17 04:22:08;;;;;;;;;29.25;21.75;;;;;-4.62;89.63;99695.75;113199;237;39805;-53
2024/01/17 04:24:45;;;;;;;;;31.00;21.00;;;;;-4.70;89.62;99694.90;113113;238;39746;-52
2024/01/17 04:27:20;;;;;;;;;25.67;21.00;;;;;-4.67;89.65;99696.12;113208;238;39704;-53
2024/01/17 04:29:56;;;;;;;;;26.00;21.00;;;;;-4.64;89.70;99698.31;113170;237;39044;-54
2024/01/17 04:32:35;;;;;;;;;33.25;24.75;;;;;-4.59;89.70;99701.83;113166;238;39923;-54
2024/01/17 04:35:11;;;;;;;;;35.67;23.00;;;;;-4.57;89.82;99704.45;113136;237;41225;-53
2024/01/17 04:37:48;;;;;;;;;26.50;18.50;;;;;-4.55;89.83;99699.77;113167;237;41265;-52
2024/01/17 04:40:24;;;;;;;;;34.00;19.00;;;;;-4.53;89.94;99706.12;113127;237;39353;-54
2024/01/17 04:43:04;;;;;;;;;32.67;23.00;;;;;-4.50;89.90;99706.04;113057;237;40485;-54
2024/01/17 04:45:39;;;;;;;;;33.00;23.00;;;;;-4.50;89.86;99703.25;113135;238;40050;-51
2024/01/17 04:48:14;;;;;;;;;26.67;19.00;;;;;-4.50;90.00;99693.07;113124;238;40085;-51
2024/01/17 04:50:52;;;;;;;;;27.00;20.00;;;;;-4.46;89.96;99689.41;113134;237;41018;-54
2024/01/17 04:53:31;;;;;;;;;32.25;23.00;;;;;-4.46;89.92;99684.54;113060;238;39402;-54
2024/01/17 04:56:07;;;;;;;;;35.00;23.00;;;;;-4.48;89.98;99685.88;113058;238;39589;-56
2024/01/17 04:58:43;;;;;;;;;21.50;16.75;;;;;-4.41;89.90;99684.98;113128;237;41322;-56
2024/01/17 05:01:22;;;;;;;;;26.75;19.00;;;;;-4.37;89.96;99686.14;113120;238;40341;-51
2024/01/17 05:04:04;;;;;;;;;23.00;16.00;;;;;-4.37;90.01;99687.91;113115;237;39440;-51
2024/01/17 05:06:37;;;;;;;;;24.75;19.00;;;;;-4.36;89.82;99685.17;112802;238;436732;-51
2024/01/17 05:09:17;;;;;;;;;24.00;16.50;;;;;-4.40;89.83;99687.38;113163;237;39914;-51
2024/01/17 05:11:53;;;;;;;;;26.00;18.00;;;;;-4.40;89.88;99688.60;113210;238;40249;-52
2024/01/17 05:14:30;;;;;;;;;24.00;17.00;;;;;-4.40;89.83;99682.98;113156;237;39921;-52
2024/01/17 05:17:10;;;;;;;;;23.75;18.25;;;;;-4.40;89.81;99680.70;113178;237;39683;-52
2024/01/17 05:19:49;;;;;;;;;32.75;23.00;;;;;-4.43;89.91;99687.33;113171;238;40627;-52
2024/01/17 05:22:25;;;;;;;;;27.00;19.00;;;;;-4.48;89.99;99683.27;113169;238;39896;-53
2024/01/17 05:25:05;;;;;;;;;26.00;19.00;;;;;-4.47;89.94;99679.81;113126;238;39220;-54
2024/01/17 05:27:42;;;;;;;;;27.00;21.00;;;;;-4.48;89.95;99683.58;113124;238;39676;-55
2024/01/17 05:30:18;;;;;;;;;29.00;21.00;;;;;-4.50;90.04;99679.92;113139;238;41477;-55
2024/01/17 05:32:55;;;;;;;;;16.75;12.50;;;;;-4.52;90.01;99681.23;113127;238;39329;-56
2024/01/17 05:35:31;;;;;;;;;30.25;20.50;;;;;-4.53;90.16;99681.20;113135;237;40929;-52
2024/01/17 05:38:07;;;;;;;;;24.25;17.00;;;;;-4.45;89.99;99681.09;113141;237;39072;-53
2024/01/17 05:40:42;;;;;;;;;23.75;18.00;;;;;-4.47;90.00;99682.45;113152;237;39368;-53
2024/01/17 05:43:22;;;;;;;;;26.75;20.25;;;;;-4.40;89.93;99685.62;113131;237;40440;-53
2024/01/17 05:45:57;;;;;;;;;27.33;20.67;;;;;-4.39;90.00;99683.30;113178;237;41153;-49
2024/01/17 05:48:33;;;;;;;;;29.00;24.00;;;;;-4.37;90.03;99681.18;113174;237;40132;-50
2024/01/17 05:51:10;;;;;;;;;30.67;22.00;;;;;-4.34;89.98;99676.61;113191;237;40094;-54
2024/01/17 05:53:46;;;;;;;;;27.00;20.67;;;;;-4.30;89.96;99679.25;113199;237;40925;-52
2024/01/17 05:56:25;;;;;;;;;28.50;20.50;;;;;-4.29;89.87;99674.61;113190;237;40691;-54
2024/01/17 05:59:03;;;;;;;;;24.00;17.50;;;;;-4.29;89.84;99671.66;113142;237;40710;-53
2024/01/17 06:01:42;;;;;;;;;34.00;25.00;;;;;-4.34;90.01;99669.55;113189;237;40718;-56
2024/01/17 06:04:26;;;;;;;;;27.50;19.75;;;;;-4.36;89.98;99666.73;113109;238;39145;-56
2024/01/17 06:07:05;;;;;;;;;31.67;23.00;;;;;-4.42;89.93;99671.01;113157;237;39485;-57
2024/01/17 06:09:46;;;;;;;;;30.50;19.00;;;;;-4.43;89.75;99666.53;113116;237;39204;-55
2024/01/17 06:12:21;;;;;;;;;28.50;20.50;;;;;-4.52;89.75;99671.45;113143;237;39477;-51
2024/01/17 06:15:01;;;;;;;;;30.25;22.25;;;;;-4.55;89.84;99677.61;113101;237;39518;-52
2024/01/17 06:17:36;;;;;;;;;30.25;21.50;;;;;-4.59;89.69;99685.30;113175;237;40743;-55
2024/01/17 06:20:16;;;;;;;;;29.67;21.00;;;;;-4.59;89.73;99687.58;113115;237;39224;-56
2024/01/17 06:22:56;;;;;;;;;21.00;16.00;;;;;-4.63;89.64;99684.92;113159;237;40812;-54
2024/01/17 06:25:32;;;;;;;;;31.00;22.00;;;;;-4.67;89.47;99686.08;113161;237;39346;-52
2024/01/17 06:28:10;;;;;;;;;21.50;16.50;;;;;-4.70;89.36;99690.37;113143;237;39256;-52
2024/01/17 06:30:45;;;;;;;;;22.75;16.25;;;;;-4.83;89.24;99694.09;113159;237;39368;-50
2024/01/17 06:33:22;;;;;;;;;21.00;16.50;;;;;-4.95;89.27;99693.56;113122;237;40515;-50
2024/01/17 06:35:59;;;;;;;;;30.00;19.50;;;;;-5.08;89.29;99687.97;113151;237;39037;-53
2024/01/17 06:38:38;;;;;;;;;23.75;19.00;;;;;-5.15;89.22;99686.09;113263;239;39767;-54
2024/01/17 06:41:14;;;;;;;;;32.00;21.25;;;;;-5.18;89.27;99682.77;113344;239;39304;-54
2024/01/17 06:43:51;;;;;;;;;30.67;20.67;;;;;-5.22;89.19;99686.52;113286;239;39343;-54
2024/01/17 06:46:26;;;;;;;;;30.00;23.00;;;;;-5.33;89.08;99678.92;113306;239;39039;-51
2024/01/17 06:49:03;;;;;;;;;19.00;15.00;;;;;-5.47;89.24;99678.98;113271;239;39843;-51
2024/01/17 06:51:46;;;;;;;;;34.75;24.25;;;;;-5.55;89.49;99676.76;113230;239;39693;-55
2024/01/17 06:54:21;;;;;;;;;33.00;25.00;;;;;-5.56;89.52;99672.42;113220;239;39721;-55
2024/01/17 06:56:58;;;;;;;;;40.00;29.00;;;;;-5.49;89.43;99673.38;113187;239;39460;-54
2024/01/17 06:59:36;;;;;;;;;34.00;26.00;;;;;-5.49;89.54;99667.73;113209;239;38855;-53
2024/01/17 07:02:15;;;;;;;;;30.50;21.75;;;;;-5.47;89.66;99663.22;113202;239;39295;-50
2024/01/17 07:04:52;;;;;;;;;21.33;16.33;;;;;-5.40;89.63;99657.44;113153;239;39284;-50
2024/01/17 07:07:27;;;;;;;;;22.33;17.00;;;;;-5.33;89.71;99651.88;113203;239;40856;-51
2024/01/17 07:10:06;;;;;;;;;30.00;22.00;;;;;-5.24;89.77;99649.09;113180;239;39639;-51
2024/01/17 07:12:41;;;;;;;;;13.50;11.00;;;;;-5.16;89.72;99644.38;113185;239;39347;-51
2024/01/17 07:15:17;;;;;;;;;23.50;18.00;;;;;-5.15;89.75;99641.63;113171;239;39289;-51
2024/01/17 07:17:55;;;;;;;;;32.00;23.50;;;;;-5.18;89.63;99640.41;113072;239;38830;-49
2024/01/17 07:20:32;;;;;;;;;29.33;21.00;;;;;-5.20;89.62;99635.73;113200;239;39161;-51
2024/01/17 07:23:10;;;;;;;;;24.75;18.75;;;;;-5.30;89.58;99626.42;113157;239;40175;-51
2024/01/17 07:25:45;;;;;;;;;25.50;18.75;;;;;-5.24;89.82;99627.90;113243;239;40347;-54
2024/01/17 07:28:19;;;;;;;;;33.25;24.00;;;;;-5.06;89.87;99622.05;113200;239;40980;-56
2024/01/17 07:30:59;;;;;;;;;32.25;22.25;;;;;-4.81;90.04;99610.20;113163;239;39341;-50
2024/01/17 07:33:39;;;;;;;;;33.00;23.00;;;;;-4.47;90.27;99616.93;113103;239;39056;-49
2024/01/17 07:36:17;;;;;;;;;26.25;19.50;;;;;-3.56;90.90;99607.29;113140;238;39223;-50
2024/01/17 07:38:58;;;;;;;;;28.00;20.00;;;;;-2.78;90.97;99600.40;113124;238;39191;-49
2024/01/17 07:41:36;;;;;;;;;37.00;24.00;;;;;-2.34;89.75;99593.59;113137;238;39191;-54
2024/01/17 07:44:15;;;;;;;;;28.00;19.50;;;;;-2.16;89.17;99594.55;113148;238;39513;-53
2024/01/17 07:46:50;;;;;;;;;33.25;23.50;;;;;-2.03;89.42;99589.57;113145;238;38985;-49
2024/01/17 07:49:29;;;;;;;;;27.75;20.00;;;;;-1.85;89.87;99583.58;113076;238;41601;-50
2024/01/17 07:52:14;;;;;;;;;24.50;18.50;;;;;-1.90;89.38;99577.66;113131;238;39137;-50
2024/01/17 07:54:49;;;;;;;;;32.00;25.00;;;;;-1.71;88.85;99574.63;113095;238;39700;-50
2024/01/17 07:57:26;;;;;;;;;31.00;22.00;;;;;-1.55;87.41;99571.47;113116;238;39740;-51
2024/01/17 08:00:06;;;;;;;;;26.50;20.25;;;;;-1.13;86.66;99568.77;113150;238;39973;-50
2024/01/17 08:02:42;;;;;;;;;34.00;26.00;;;;;-0.44;86.32;99567.27;113173;238;39624;-55
2024/01/17 08:05:17;;;;;;;;;31.75;25.00;;;;;0.31;85.58;99558.61;113150;238;39645;-56
2024/01/17 08:07:52;;;;;;;;;33.00;24.00;;;;;0.76;84.59;99551.96;113128;238;39939;-56
2024/01/17 08:10:30;;;;;;;;;34.33;25.33;;;;;1.10;83.30;99547.03;113138;238;40040;-52
2024/01/17 08:13:04;;;;;;;;;34.67;26.00;;;;;1.42;82.66;99544.20;113152;238;43317;-52
2024/01/17 08:15:38;;;;;;;;;32.00;24.67;;;;;1.53;80.88;99540.60;113178;238;41888;-55
2024/01/17 08:18:16;;;;;;;;;37.00;26.00;;;;;1.35;79.82;99541.48;113178;238;39799;-55
2024/01/17 08:20:55;;;;;;;;;29.25;22.00;;;;;0.77;79.09;99535.91;113192;238;39680;-52
2024/01/17 08:23:30;;;;;;;;;28.00;22.00;;;;;0.17;79.05;99538.02;113201;238;39579;-52
2024/01/17 08:26:11;;;;;;;;;21.00;18.00;;;;;-0.65;79.46;99538.40;113174;238;40542;-52
2024/01/17 08:28:48;;;;;;;;;29.33;20.67;;;;;-1.19;79.66;99538.81;113195;238;39964;-52
2024/01/17 08:31:24;;;;;;;;;24.00;18.75;;;;;-1.53;79.92;99544.13;113186;238;39887;-51
2024/01/17 08:34:00;;;;;;;;;32.00;23.00;;;;;-1.95;79.74;99546.38;113121;238;40307;-52
2024/01/17 08:36:36;;;;;;;;;20.75;15.00;;;;;-2.22;80.62;99545.14;113175;238;39933;-51
2024/01/17 08:39:16;;;;;;;;;23.00;17.00;;;;;-2.33;80.70;99550.87;113161;238;39746;-49
2024/01/17 08:41:53;;;;;;;;;29.00;20.00;;;;;-2.46;81.10;99555.44;113338;235;40320;-55
2024/01/17 08:44:29;;;;;;;;;18.00;15.00;;;;;-2.47;81.46;99554.18;113623;236;41462;-55
2024/01/17 08:47:06;;;;;;;;;25.00;16.25;;;;;-2.38;81.56;99554.45;113235;236;40157;-52
2024/01/17 08:49:45;;;;;;;;;30.00;22.00;;;;;-1.97;81.68;99551.80;113184;237;39569;-53
2024/01/17 08:52:24;;;;;;;;;28.00;21.00;;;;;-1.45;82.24;99545.68;113225;237;39815;-49
2024/01/17 08:55:01;;;;;;;;;27.00;18.33;;;;;-1.10;81.57;99539.04;113234;237;39005;-53
2024/01/17 08:57:40;;;;;;;;;24.00;20.00;;;;;-1.28;81.02;99534.64;113190;237;39453;-54
2024/01/17 09:00:17;;;;;;;;;27.00;21.00;;;;;-1.58;80.97;99534.51;113230;237;39125;-49
2024/01/17 09:02:54;;;;;;;;;28.00;19.75;;;;;-1.79;80.65;99532.83;113237;237;39492;-50
2024/01/17 09:05:34;;;;;;;;;19.75;15.75;;;;;-2.00;80.74;99530.77;113211;237;38903;-50
2024/01/17 09:08:10;;;;;;;;;24.00;19.00;;;;;-2.05;80.99;99521.63;113223;237;39872;-50
2024/01/17 09:10:50;;;;;;;;;29.00;20.00;;;;;-2.01;81.21;99517.55;113186;237;39266;-50
2024/01/17 09:13:35;;;;;;;;;20.33;15.33;;;;;-1.84;81.85;99514.35;113208;237;39133;-54
2024/01/17 09:16:18;;;;;;;;;33.50;23.00;;;;;-1.14;81.86;99509.33;113204;237;39229;-54
2024/01/17 09:18:58;;;;;;;;;30.75;21.25;;;;;-0.70;81.96;99500.33;113203;237;39885;-54
2024/01/17 09:21:33;;;;;;;;;37.50;25.50;;;;;-0.11;81.58;99495.69;113193;237;39616;-53
2024/01/17 09:24:09;;;;;;;;;26.00;19.00;;;;;0.14;80.69;99490.30;113168;237;40415;-54
2024/01/17 09:26:45;;;;;;;;;33.00;24.00;;;;;0.17;80.43;99487.52;113177;237;39638;-51
2024/01/17 09:29:21;;;;;;;;;35.00;26.00;;;;;0.52;80.20;99470.89;113163;237;40974;-51
2024/01/17 09:31:58;;;;;;;;;33.50;24.25;;;;;0.66;79.90;99467.01;113167;237;40460;-52
2024/01/17 09:34:36;;;;;;;;;34.00;25.00;;;;;0.87;79.72;99458.21;113144;237;39355;-51
2024/01/17 09:37:25;;;;;;;;;34.50;25.50;;;;;1.14;79.48;99449.63;113146;237;39752;-55
2024/01/17 09:40:01;;;;;;;;;35.00;24.75;;;;;1.65;77.64;99443.92;113231;237;39376;-55
2024/01/17 09:42:38;;;;;;;;;35.50;26.00;;;;;1.82;77.55;99435.73;113218;237;39535;-52
2024/01/17 09:45:19;;;;;;;;;33.25;25.00;;;;;2.47;77.06;99424.21;113216;237;40063;-51
2024/01/17 09:47:58;;;;;;;;;40.25;27.75;;;;;2.80;75.63;99418.95;113198;237;39521;-53
2024/01/17 09:50:33;;;;;;;;;35.00;25.00;;;;;3.29;73.60;99410.95;113140;237;41569;-55
2024/01/17 09:53:17;;;;;;;;;34.67;27.00;;;;;3.56;73.89;99398.69;113104;237;40804;-53
2024/01/17 09:55:58;;;;;;;;;30.25;24.25;;;;;3.85;73.57;99392.45;113111;237;41354;-53
2024/01/17 09:58:36;;;;;;;;;34.75;25.75;;;;;3.74;73.28;99389.03;113144;237;41166;-55
2024/01/17 10:01:14;;;;;;;;;35.25;27.50;;;;;3.53;73.70;99381.20;113175;237;39752;-55
2024/01/17 10:03:56;;;;;;;;;41.00;29.00;;;;;3.51;73.48;99376.96;113136;237;39888;-55
2024/01/17 10:06:31;;;;;;;;;34.75;26.00;;;;;3.90;72.38;99365.45;113135;237;41366;-53
2024/01/17 10:09:05;;;;;;;;;34.50;26.00;;;;;3.93;71.59;99358.56;113130;237;39135;-52
2024/01/17 10:11:44;;;;;;;;;37.00;26.50;;;;;4.15;70.84;99347.68;113157;237;39543;-52
2024/01/17 10:14:21;;;;;;;;;38.75;29.00;;;;;4.33;70.89;99342.62;113121;237;39894;-51
2024/01/17 10:16:54;;;;;;;;;36.00;26.00;;;;;4.48;70.31;99333.71;113152;237;39282;-51
2024/01/17 10:19:33;;;;;;;;;38.25;29.00;;;;;4.46;68.62;99326.56;113172;237;40001;-51
2024/01/17 10:22:10;;;;;;;;;37.00;28.00;;;;;4.51;68.32;99317.65;113242;237;39894;-52
2024/01/17 10:24:45;;;;;;;;;35.00;27.00;;;;;4.31;69.62;99308.41;113216;237;39130;-50
2024/01/17 10:27:22;;;;;;;;;31.50;24.00;;;;;4.31;70.30;99306.41;113221;237;40877;-54
2024/01/17 10:30:01;;;;;;;;;33.00;23.00;;;;;4.21;69.75;99297.07;113207;237;39450;-54
2024/01/17 10:32:37;;;;;;;;;32.25;24.25;;;;;3.97;69.42;99290.88;113233;237;39723;-52
2024/01/17 10:35:13;;;;;;;;;34.75;26.50;;;;;3.24;69.11;99286.59;113099;237;39663;-51
2024/01/17 10:37:52;;;;;;;;;29.33;22.00;;;;;2.79;69.16;99284.34;113185;237;41064;-51
2024/01/17 10:40:36;;;;;;;;;29.75;24.00;;;;;2.32;69.33;99279.64;113181;237;41178;-52
2024/01/17 10:43:16;;;;;;;;;26.00;20.25;;;;;2.06;68.46;99270.41;113230;237;39620;-55
2024/01/17 10:46:05;;;;;;;;;27.50;21.25;;;;;1.71;69.16;99264.77;113298;237;39436;-55
2024/01/17 10:48:42;;;;;;;;;20.00;15.00;;;;;1.26;69.14;99259.54;113231;237;39437;-52
2024/01/17 10:51:23;;;;;;;;;26.75;20.00;;;;;0.94;68.75;99251.52;113211;237;39506;-52
2024/01/17 10:53:58;;;;;;;;;31.00;21.50;;;;;0.80;69.29;99248.79;113189;237;40445;-52
2024/01/17 10:56:39;;;;;;;;;24.75;18.50;;;;;0.67;69.38;99249.33;113225;237;39796;-51
2024/01/17 10:59:22;;;;;;;;;26.00;20.00;;;;;0.47;69.73;99240.57;113155;237;39419;-49
2024/01/17 11:01:58;;;;;;;;;22.50;16.25;;;;;0.24;69.89;99242.02;113192;237;39568;-53
2024/01/17 11:04:40;;;;;;;;;18.00;14.25;;;;;0.10;70.22;99234.78;113152;237;39919;-52
2024/01/17 11:07:19;;;;;;;;;25.50;18.25;;;;;0.03;70.70;99226.07;113222;237;39795;-52
2024/01/17 11:09:57;;;;;;;;;20.50;15.00;;;;;-0.05;70.91;99224.77;113194;237;39986;-50
2024/01/17 11:12:37;;;;;;;;;26.00;20.00;;;;;-0.18;70.79;99220.02;113239;237;39157;-52
2024/01/17 11:15:15;;;;;;;;;23.00;18.00;;;;;-0.30;71.09;99215.39;113281;237;39239;-50
2024/01/17 11:17:51;;;;;;;;;25.00;18.67;;;;;-0.28;71.25;99211.48;113242;237;39688;-54
2024/01/17 11:20:30;;;;;;;;;33.75;23.00;;;;;-0.33;71.45;99210.54;113223;237;41018;-54
2024/01/17 11:23:15;;;;;;;;;23.00;17.00;;;;;-0.44;71.44;99198.44;113309;237;39416;-55
2024/01/17 11:26:02;;;;;;;;;20.25;15.00;;;;;-0.56;72.03;99188.42;113239;237;39725;-55
2024/01/17 11:28:50;;;;;;;;;28.25;18.75;;;;;-0.57;72.16;99179.34;113228;237;39221;-51
2024/01/17 11:31:41;;;;;;;;;25.67;18.00;;;;;-0.52;72.60;99171.93;113131;237;40410;-52
2024/01/17 11:34:19;;;;;;;;;27.00;19.00;;;;;-0.44;72.55;99165.16;113201;237;39560;-54
2024/01/17 11:36:53;;;;;;;;;27.00;19.75;;;;;-0.38;72.71;99157.15;113199;237;40362;-52
2024/01/17 11:39:32;;;;;;;;;23.25;19.00;;;;;-0.39;72.76;99148.06;113217;237;39624;-55
2024/01/17 11:42:06;;;;;;;;;20.25;15.00;;;;;-0.33;72.71;99136.85;113235;237;39510;-51
2024/01/17 11:44:42;;;;;;;;;33.67;21.67;;;;;-0.30;72.71;99131.88;113177;237;39782;-51
2024/01/17 11:47:22;;;;;;;;;20.00;16.00;;;;;-0.37;72.66;99130.11;113232;237;39351;-54
2024/01/17 11:50:05;;;;;;;;;28.25;20.50;;;;;-0.38;72.60;99129.77;113233;237;39960;-55
2024/01/17 11:52:45;;;;;;;;;29.00;23.00;;;;;-0.39;72.87;99124.17;113202;237;40038;-52
2024/01/17 11:55:30;;;;;;;;;22.50;17.00;;;;;-0.31;72.81;99121.09;113190;237;41128;-50
2024/01/17 11:58:11;;;;;;;;;32.00;20.75;;;;;-0.21;73.22;99116.30;113256;237;39756;-50
2024/01/17 12:00:54;;;;;;;;;26.00;18.67;;;;;-0.22;72.94;99111.80;113217;237;39754;-51
2024/01/17 12:03:34;;;;;;;;;21.50;15.75;;;;;-0.31;73.13;99109.35;113235;237;39739;-58
2024/01/17 12:06:11;;;;;;;;;28.00;19.50;;;;;-0.52;72.80;99100.48;113246;237;39846;-53
2024/01/17 12:08:46;;;;;;;;;21.75;15.00;;;;;-0.63;73.22;99091.14;113260;237;40602;-53